Grand Duke — 3ECP7 — position and weather

sailwx.info

Track history (hours):
 
Tides and Currents Weather Stations Pressure Air Temp Water Temp Dewpoint Dewpoint Depression Visibility Wind Speed Wind Dir Waves Ship Positions

Grand Duke

Last reported at 2018-Feb-17 14:53 UTC. Time now 2018-Feb-22 13:12 UTC.
Position N 34°25' E 139°57'.

Length 199 m; draft 9.4 m.

Type: Cargo ship. MMSI: 371384000.

Date/timePositionNaut miles runAvg speedWind from/ knotsBaromVisibWave heightAir tempDewpointWater temp
2018-Feb-17 14:53N 34°25' E 139°57'615.0
2018-Feb-17 14:29N 34°30' E 139°55'915.7
2018-Feb-17 13:56N 34°38' E 139°50'1116.6
2018-Feb-17 13:16N 34°48' E 139°44'617.8
2018-Feb-17 12:56N 34°54' E 139°42'715.7
2018-Feb-17 12:30N 35°00' E 139°41'815.8
2018-Feb-17 12:01N 35°07' E 139°44'611.1
2018-Feb-17 11:31N 35°13' E 139°46'612.5
2018-Feb-17 11:00N 35°19' E 139°43'713.7
2018-Feb-17 10:30N 35°25' E 139°42'2 4.3
2018-Feb-17 09:58N 35°27' E 139°41'0 0.0
2018-Feb-17 09:28N 35°27' E 139°41'0 0.0
2018-Feb-17 08:58N 35°27' E 139°41'0 0.0
2018-Feb-17 08:28N 35°27' E 139°41'0 0.0
2018-Feb-17 07:58N 35°27' E 139°41'0 0.0
2018-Feb-17 07:28N 35°27' E 139°41'0 0.0
2018-Feb-17 06:58N 35°27' E 139°41'0 0.0
2018-Feb-17 06:28N 35°27' E 139°41'0 0.0
2018-Feb-17 05:58N 35°27' E 139°41'0 0.0
2018-Feb-17 05:28N 35°27' E 139°41'0 0.0
2018-Feb-17 04:58N 35°27' E 139°41'0 0.0
2018-Feb-17 04:28N 35°27' E 139°41'0 0.0
2018-Feb-17 03:58N 35°27' E 139°41'0 0.0
2018-Feb-17 03:28N 35°27' E 139°41'0 0.0
2018-Feb-17 02:58N 35°27' E 139°41'0 0.0
2018-Feb-17 02:28N 35°27' E 139°41'0 0.0
2018-Feb-17 01:58N 35°27' E 139°41'0 0.0
2018-Feb-17 01:28N 35°27' E 139°41'0 0.0
2018-Feb-17 00:58N 35°27' E 139°41'0 0.0
2018-Feb-17 00:28N 35°27' E 139°41'0 0.0
2018-Feb-16 23:58N 35°27' E 139°41'0 0.7
2018-Feb-16 23:31N 35°27' E 139°41'3 6.8
2018-Feb-16 23:01N 35°24' E 139°43'511.0
2018-Feb-16 22:31N 35°19' E 139°44'611.1
2018-Feb-16 22:01N 35°14' E 139°47'5 9.2
2018-Feb-16 21:30N 35°09' E 139°47'611.7
2018-Feb-16 21:00N 35°04' E 139°44'510.7
2018-Feb-16 20:31N 34°59' E 139°42'814.5
2018-Feb-16 19:59N 34°51' E 139°41'714.0
2018-Feb-16 19:30N 34°45' E 139°37'714.7
2018-Feb-16 19:00N 34°39' E 139°32'816.7
2018-Feb-16 18:30N 34°37' E 139°23'816.8
2018-Feb-16 18:00N 34°34' E 139°13'916.9
2018-Feb-16 17:30N 34°31' E 139°03'917.4
2018-Feb-16 17:00N 34°30' E 138°53'917.7
2018-Feb-16 16:29N 34°30' E 138°42'917.3
2018-Feb-16 15:59N 34°29' E 138°31'817.0
2018-Feb-16 15:30N 34°29' E 138°21'917.5
2018-Feb-16 14:59N 34°29' E 138°10'816.9
2018-Feb-16 14:30N 34°29' E 138°00'816.6
2018-Feb-16 14:00N 34°29' E 137°50'815.7
2018-Feb-16 13:30N 34°29' E 137°41'915.3
2018-Feb-16 12:54N 34°28' E 137°29'615.3
2018-Feb-16 12:29N 34°28' E 137°22'815.9
2018-Feb-16 12:00N 34°27' E 137°13'713.9
2018-Feb-16 11:30N 34°27' E 137°04'612.1
2018-Feb-16 11:00N 34°33' E 137°01'713.9
2018-Feb-16 10:30N 34°37' E 136°54'815.9
2018-Feb-16 10:00N 34°43' E 136°48'815.8
2018-Feb-16 09:30N 34°51' E 136°46'815.0
2018-Feb-16 09:00N 34°58' E 136°48'611.3
2018-Feb-16 08:30N 35°03' E 136°52'1 1.1
2018-Feb-16 07:58N 35°03' E 136°53'0 0.0
2018-Feb-16 07:28N 35°03' E 136°53'0 0.0
2018-Feb-16 06:58N 35°03' E 136°53'0 0.0
2018-Feb-16 06:28N 35°03' E 136°53'0 0.0
2018-Feb-16 05:58N 35°03' E 136°53'0 0.0
2018-Feb-16 05:28N 35°03' E 136°53'0 0.0
2018-Feb-16 04:52N 35°03' E 136°53'0 0.0
2018-Feb-16 04:28N 35°03' E 136°53'0 0.0
2018-Feb-16 03:52N 35°03' E 136°53'0 0.0
2018-Feb-16 03:28N 35°03' E 136°53'0 0.0
2018-Feb-16 02:58N 35°03' E 136°53'0 0.0
2018-Feb-16 02:28N 35°03' E 136°53'0 0.0
2018-Feb-16 01:58N 35°03' E 136°53'0 0.0
2018-Feb-16 01:28N 35°03' E 136°53'0 0.0
2018-Feb-16 00:58N 35°03' E 136°53'0 0.0
2018-Feb-16 00:28N 35°03' E 136°53'0 0.0
2018-Feb-15 23:58N 35°03' E 136°53'0 0.0
2018-Feb-15 23:16N 35°03' E 136°53'0 0.0
2018-Feb-15 22:58N 35°03' E 136°53'0 0.0
2018-Feb-15 22:28N 35°03' E 136°53'0 0.1
2018-Feb-15 22:00N 35°03' E 136°53'1 2.8
2018-Feb-15 21:30N 35°02' E 136°51'0 0.6
2018-Feb-15 21:00N 35°03' E 136°51'0 0.0
2018-Feb-15 20:30N 35°03' E 136°51'0 0.0
2018-Feb-15 20:00N 35°03' E 136°51'0 0.0
2018-Feb-15 19:30N 35°03' E 136°51'0 0.0
2018-Feb-15 19:00N 35°03' E 136°51'0 0.0
2018-Feb-15 18:30N 35°03' E 136°51'0 0.0
2018-Feb-15 18:00N 35°03' E 136°51'0 0.0
2018-Feb-15 17:30N 35°03' E 136°51'0 0.0
2018-Feb-15 17:00N 35°03' E 136°51'0 0.0
2018-Feb-15 16:30N 35°03' E 136°51'0 0.0
2018-Feb-15 16:00N 35°03' E 136°51'0 0.0
2018-Feb-15 15:30N 35°03' E 136°51'0 0.0
2018-Feb-15 15:00N 35°03' E 136°51'0 0.0
2018-Feb-15 14:30N 35°03' E 136°51'0 0.0
2018-Feb-15 14:00N 35°03' E 136°51'0 0.0
2018-Feb-15 13:30N 35°03' E 136°51'0 0.0
2018-Feb-15 13:00N 35°03' E 136°51'0 0.0
2018-Feb-15 12:30N 35°03' E 136°51'0 0.0
2018-Feb-15 12:00N 35°03' E 136°51'0 0.0
2018-Feb-15 11:30N 35°03' E 136°51'0 0.0
2018-Feb-15 11:00N 35°03' E 136°51'0 0.0
2018-Feb-15 10:30N 35°03' E 136°51'0 0.0
2018-Feb-15 09:54N 35°03' E 136°51'0 0.0
2018-Feb-15 09:30N 35°03' E 136°51'0 0.0
2018-Feb-15 09:00N 35°03' E 136°51'0 0.0
2018-Feb-15 08:30N 35°03' E 136°51'0 0.0
2018-Feb-15 08:00N 35°03' E 136°51'0 0.0
2018-Feb-15 07:30N 35°03' E 136°51'0 0.0
2018-Feb-15 07:00N 35°03' E 136°51'0 0.0
2018-Feb-15 06:24N 35°03' E 136°51'0 0.0
2018-Feb-15 06:00N 35°03' E 136°51'0 0.0
2018-Feb-15 05:30N 35°03' E 136°51'0 0.0
2018-Feb-15 05:00N 35°03' E 136°51'0 0.0
2018-Feb-15 04:30N 35°03' E 136°51'0 0.0
2018-Feb-15 04:00N 35°03' E 136°51'0 0.0
2018-Feb-15 03:30N 35°03' E 136°51'0 0.0
2018-Feb-15 03:00N 35°03' E 136°51'0 0.0
2018-Feb-15 02:30N 35°03' E 136°51'0 0.0
2018-Feb-15 02:00N 35°03' E 136°51'0 0.0
2018-Feb-15 01:30N 35°03' E 136°51'0 0.0
2018-Feb-15 01:00N 35°03' E 136°51'0 0.0
2018-Feb-15 00:30N 35°03' E 136°51'0 0.0
2018-Feb-15 00:00N 35°03' E 136°51'0 0.0
2018-Feb-14 23:30N 35°03' E 136°51'0 0.0
2018-Feb-14 23:00N 35°03' E 136°51'0 0.0
2018-Feb-14 22:30N 35°03' E 136°51'0 0.0
2018-Feb-14 22:00N 35°03' E 136°51'2 3.1
2018-Feb-14 21:31N 35°01' E 136°51'510.0
2018-Feb-14 21:00N 34°57' E 136°47'4 7.6
2018-Feb-14 20:30N 34°54' E 136°45'0 0.2
2018-Feb-14 19:59N 34°54' E 136°45'0 0.0
2018-Feb-14 19:29N 34°54' E 136°45'0 0.0
2018-Feb-14 18:59N 34°54' E 136°45'0 0.0
2018-Feb-14 18:29N 34°54' E 136°45'0 0.0
2018-Feb-14 17:59N 34°54' E 136°45'0 0.0
2018-Feb-14 17:29N 34°54' E 136°45'0 0.0
2018-Feb-14 16:59N 34°54' E 136°45'0 0.0
2018-Feb-14 16:29N 34°54' E 136°45'0 0.0
2018-Feb-14 15:59N 34°54' E 136°45'0 0.0
2018-Feb-14 15:29N 34°54' E 136°45'0 0.1
2018-Feb-14 14:59N 34°54' E 136°44'0 0.0
2018-Feb-14 14:29N 34°54' E 136°44'0 0.1
2018-Feb-14 13:59N 34°54' E 136°45'0 0.1
2018-Feb-14 13:29N 34°54' E 136°44'0 0.0
2018-Feb-14 12:59N 34°54' E 136°44'0 0.0
2018-Feb-14 12:29N 34°54' E 136°44'0 0.0
2018-Feb-14 11:59N 34°54' E 136°44'0 0.0
2018-Feb-14 11:29N 34°54' E 136°44'0 0.1
2018-Feb-14 10:59N 34°54' E 136°45'0 0.1
2018-Feb-14 10:29N 34°54' E 136°44'0 0.0
2018-Feb-14 09:59N 34°54' E 136°44'0 0.0
2018-Feb-14 09:29N 34°54' E 136°44'0 0.1
2018-Feb-14 08:59N 34°54' E 136°45'0 0.1
2018-Feb-14 08:29N 34°54' E 136°44'0 0.0
2018-Feb-14 07:59N 34°54' E 136°44'0 0.1
2018-Feb-14 07:29N 34°54' E 136°45'0 0.1
2018-Feb-14 06:59N 34°54' E 136°44'0 0.1
2018-Feb-14 06:29N 34°54' E 136°45'1 1.9
2018-Feb-14 06:00N 34°53' E 136°45'611.4
2018-Feb-14 05:30N 34°48' E 136°47'816.3
2018-Feb-14 05:00N 34°41' E 136°52'714.2
2018-Feb-14 04:30N 34°36' E 136°58'713.1
2018-Feb-14 03:59N 34°30' E 137°03'5 9.4
2018-Feb-14 03:29N 34°26' E 137°04'2713.2
2018-Feb-14 01:25N 34°01' E 136°49'716.0
2018-Feb-14 01:00N 33°57' E 136°43'  
Track history (hours):
 
Tides and Currents Weather Stations Pressure Air Temp Water Temp Dewpoint Dewpoint Depression Visibility Wind Speed Wind Dir Waves Ship Positions

Grand Duke

Last reported at 2018-Feb-17 14:53 UTC. Time now 2018-Feb-22 13:12 UTC.
Position N 34°25' E 139°57'.

Length 199 m; draft 9.4 m.

Type: Cargo ship. MMSI: 371384000.

Date/timePositionNaut miles runAvg speedWind from/ knotsBaromVisibWave heightAir tempDewpointWater temp
2018-Feb-17 14:53N 34°25' E 139°57'615.0
2018-Feb-17 14:29N 34°30' E 139°55'915.7
2018-Feb-17 13:56N 34°38' E 139°50'1116.6
2018-Feb-17 13:16N 34°48' E 139°44'617.8
2018-Feb-17 12:56N 34°54' E 139°42'715.7
2018-Feb-17 12:30N 35°00' E 139°41'815.8
2018-Feb-17 12:01N 35°07' E 139°44'611.1
2018-Feb-17 11:31N 35°13' E 139°46'612.5
2018-Feb-17 11:00N 35°19' E 139°43'713.7
2018-Feb-17 10:30N 35°25' E 139°42'2 4.3
2018-Feb-17 09:58N 35°27' E 139°41'0 0.0
2018-Feb-17 09:28N 35°27' E 139°41'0 0.0
2018-Feb-17 08:58N 35°27' E 139°41'0 0.0
2018-Feb-17 08:28N 35°27' E 139°41'0 0.0
2018-Feb-17 07:58N 35°27' E 139°41'0 0.0
2018-Feb-17 07:28N 35°27' E 139°41'0 0.0
2018-Feb-17 06:58N 35°27' E 139°41'0 0.0
2018-Feb-17 06:28N 35°27' E 139°41'0 0.0
2018-Feb-17 05:58N 35°27' E 139°41'0 0.0
2018-Feb-17 05:28N 35°27' E 139°41'0 0.0
2018-Feb-17 04:58N 35°27' E 139°41'0 0.0
2018-Feb-17 04:28N 35°27' E 139°41'0 0.0
2018-Feb-17 03:58N 35°27' E 139°41'0 0.0
2018-Feb-17 03:28N 35°27' E 139°41'0 0.0
2018-Feb-17 02:58N 35°27' E 139°41'0 0.0
2018-Feb-17 02:28N 35°27' E 139°41'0 0.0
2018-Feb-17 01:58N 35°27' E 139°41'0 0.0
2018-Feb-17 01:28N 35°27' E 139°41'0 0.0
2018-Feb-17 00:58N 35°27' E 139°41'0 0.0
2018-Feb-17 00:28N 35°27' E 139°41'0 0.0
2018-Feb-16 23:58N 35°27' E 139°41'0 0.7
2018-Feb-16 23:31N 35°27' E 139°41'3 6.8
2018-Feb-16 23:01N 35°24' E 139°43'511.0
2018-Feb-16 22:31N 35°19' E 139°44'611.1
2018-Feb-16 22:01N 35°14' E 139°47'5 9.2
2018-Feb-16 21:30N 35°09' E 139°47'611.7
2018-Feb-16 21:00N 35°04' E 139°44'510.7
2018-Feb-16 20:31N 34°59' E 139°42'814.5
2018-Feb-16 19:59N 34°51' E 139°41'714.0
2018-Feb-16 19:30N 34°45' E 139°37'714.7
2018-Feb-16 19:00N 34°39' E 139°32'816.7
2018-Feb-16 18:30N 34°37' E 139°23'816.8
2018-Feb-16 18:00N 34°34' E 139°13'916.9
2018-Feb-16 17:30N 34°31' E 139°03'917.4
2018-Feb-16 17:00N 34°30' E 138°53'917.7
2018-Feb-16 16:29N 34°30' E 138°42'917.3
2018-Feb-16 15:59N 34°29' E 138°31'817.0
2018-Feb-16 15:30N 34°29' E 138°21'917.5
2018-Feb-16 14:59N 34°29' E 138°10'816.9
2018-Feb-16 14:30N 34°29' E 138°00'816.6
2018-Feb-16 14:00N 34°29' E 137°50'815.7
2018-Feb-16 13:30N 34°29' E 137°41'915.3
2018-Feb-16 12:54N 34°28' E 137°29'615.3
2018-Feb-16 12:29N 34°28' E 137°22'815.9
2018-Feb-16 12:00N 34°27' E 137°13'713.9
2018-Feb-16 11:30N 34°27' E 137°04'612.1
2018-Feb-16 11:00N 34°33' E 137°01'713.9
2018-Feb-16 10:30N 34°37' E 136°54'815.9
2018-Feb-16 10:00N 34°43' E 136°48'815.8
2018-Feb-16 09:30N 34°51' E 136°46'815.0
2018-Feb-16 09:00N 34°58' E 136°48'611.3
2018-Feb-16 08:30N 35°03' E 136°52'1 1.1
2018-Feb-16 07:58N 35°03' E 136°53'0 0.0
2018-Feb-16 07:28N 35°03' E 136°53'0 0.0
2018-Feb-16 06:58N 35°03' E 136°53'0 0.0
2018-Feb-16 06:28N 35°03' E 136°53'0 0.0
2018-Feb-16 05:58N 35°03' E 136°53'0 0.0
2018-Feb-16 05:28N 35°03' E 136°53'0 0.0
2018-Feb-16 04:52N 35°03' E 136°53'0 0.0
2018-Feb-16 04:28N 35°03' E 136°53'0 0.0
2018-Feb-16 03:52N 35°03' E 136°53'0 0.0
2018-Feb-16 03:28N 35°03' E 136°53'0 0.0
2018-Feb-16 02:58N 35°03' E 136°53'0 0.0
2018-Feb-16 02:28N 35°03' E 136°53'0 0.0
2018-Feb-16 01:58N 35°03' E 136°53'0 0.0
2018-Feb-16 01:28N 35°03' E 136°53'0 0.0
2018-Feb-16 00:58N 35°03' E 136°53'0 0.0
2018-Feb-16 00:28N 35°03' E 136°53'0 0.0
2018-Feb-15 23:58N 35°03' E 136°53'0 0.0
2018-Feb-15 23:16N 35°03' E 136°53'0 0.0
2018-Feb-15 22:58N 35°03' E 136°53'0 0.0
2018-Feb-15 22:28N 35°03' E 136°53'0 0.1
2018-Feb-15 22:00N 35°03' E 136°53'1 2.8
2018-Feb-15 21:30N 35°02' E 136°51'0 0.6
2018-Feb-15 21:00N 35°03' E 136°51'0 0.0
2018-Feb-15 20:30N 35°03' E 136°51'0 0.0
2018-Feb-15 20:00N 35°03' E 136°51'0 0.0
2018-Feb-15 19:30N 35°03' E 136°51'0 0.0
2018-Feb-15 19:00N 35°03' E 136°51'0 0.0
2018-Feb-15 18:30N 35°03' E 136°51'0 0.0
2018-Feb-15 18:00N 35°03' E 136°51'0 0.0
2018-Feb-15 17:30N 35°03' E 136°51'0 0.0
2018-Feb-15 17:00N 35°03' E 136°51'0 0.0
2018-Feb-15 16:30N 35°03' E 136°51'0 0.0
2018-Feb-15 16:00N 35°03' E 136°51'0 0.0
2018-Feb-15 15:30N 35°03' E 136°51'0 0.0
2018-Feb-15 15:00N 35°03' E 136°51'0 0.0
2018-Feb-15 14:30N 35°03' E 136°51'0 0.0
2018-Feb-15 14:00N 35°03' E 136°51'0 0.0
2018-Feb-15 13:30N 35°03' E 136°51'0 0.0
2018-Feb-15 13:00N 35°03' E 136°51'0 0.0
2018-Feb-15 12:30N 35°03' E 136°51'0 0.0
2018-Feb-15 12:00N 35°03' E 136°51'0 0.0
2018-Feb-15 11:30N 35°03' E 136°51'0 0.0
2018-Feb-15 11:00N 35°03' E 136°51'0 0.0
2018-Feb-15 10:30N 35°03' E 136°51'0 0.0
2018-Feb-15 09:54N 35°03' E 136°51'0 0.0
2018-Feb-15 09:30N 35°03' E 136°51'0 0.0
2018-Feb-15 09:00N 35°03' E 136°51'0 0.0
2018-Feb-15 08:30N 35°03' E 136°51'0 0.0
2018-Feb-15 08:00N 35°03' E 136°51'0 0.0
2018-Feb-15 07:30N 35°03' E 136°51'0 0.0
2018-Feb-15 07:00N 35°03' E 136°51'0 0.0
2018-Feb-15 06:24N 35°03' E 136°51'0 0.0
2018-Feb-15 06:00N 35°03' E 136°51'0 0.0
2018-Feb-15 05:30N 35°03' E 136°51'0 0.0
2018-Feb-15 05:00N 35°03' E 136°51'0 0.0
2018-Feb-15 04:30N 35°03' E 136°51'0 0.0
2018-Feb-15 04:00N 35°03' E 136°51'0 0.0
2018-Feb-15 03:30N 35°03' E 136°51'0 0.0
2018-Feb-15 03:00N 35°03' E 136°51'0 0.0
2018-Feb-15 02:30N 35°03' E 136°51'0 0.0
2018-Feb-15 02:00N 35°03' E 136°51'0 0.0
2018-Feb-15 01:30N 35°03' E 136°51'0 0.0
2018-Feb-15 01:00N 35°03' E 136°51'0 0.0
2018-Feb-15 00:30N 35°03' E 136°51'0 0.0
2018-Feb-15 00:00N 35°03' E 136°51'0 0.0
2018-Feb-14 23:30N 35°03' E 136°51'0 0.0
2018-Feb-14 23:00N 35°03' E 136°51'0 0.0
2018-Feb-14 22:30N 35°03' E 136°51'0 0.0
2018-Feb-14 22:00N 35°03' E 136°51'2 3.1
2018-Feb-14 21:31N 35°01' E 136°51'510.0
2018-Feb-14 21:00N 34°57' E 136°47'4 7.6
2018-Feb-14 20:30N 34°54' E 136°45'0 0.2
2018-Feb-14 19:59N 34°54' E 136°45'0 0.0
2018-Feb-14 19:29N 34°54' E 136°45'0 0.0
2018-Feb-14 18:59N 34°54' E 136°45'0 0.0
2018-Feb-14 18:29N 34°54' E 136°45'0 0.0
2018-Feb-14 17:59N 34°54' E 136°45'0 0.0
2018-Feb-14 17:29N 34°54' E 136°45'0 0.0
2018-Feb-14 16:59N 34°54' E 136°45'0 0.0
2018-Feb-14 16:29N 34°54' E 136°45'0 0.0
2018-Feb-14 15:59N 34°54' E 136°45'0 0.0
2018-Feb-14 15:29N 34°54' E 136°45'0 0.1
2018-Feb-14 14:59N 34°54' E 136°44'0 0.0
2018-Feb-14 14:29N 34°54' E 136°44'0 0.1
2018-Feb-14 13:59N 34°54' E 136°45'0 0.1
2018-Feb-14 13:29N 34°54' E 136°44'0 0.0
2018-Feb-14 12:59N 34°54' E 136°44'0 0.0
2018-Feb-14 12:29N 34°54' E 136°44'0 0.0
2018-Feb-14 11:59N 34°54' E 136°44'0 0.0
2018-Feb-14 11:29N 34°54' E 136°44'0 0.1
2018-Feb-14 10:59N 34°54' E 136°45'0 0.1
2018-Feb-14 10:29N 34°54' E 136°44'0 0.0
2018-Feb-14 09:59N 34°54' E 136°44'0 0.0
2018-Feb-14 09:29N 34°54' E 136°44'0 0.1
2018-Feb-14 08:59N 34°54' E 136°45'0 0.1
2018-Feb-14 08:29N 34°54' E 136°44'0 0.0
2018-Feb-14 07:59N 34°54' E 136°44'0 0.1
2018-Feb-14 07:29N 34°54' E 136°45'0 0.1
2018-Feb-14 06:59N 34°54' E 136°44'0 0.1
2018-Feb-14 06:29N 34°54' E 136°45'1 1.9
2018-Feb-14 06:00N 34°53' E 136°45'611.4
2018-Feb-14 05:30N 34°48' E 136°47'816.3
2018-Feb-14 05:00N 34°41' E 136°52'714.2
2018-Feb-14 04:30N 34°36' E 136°58'713.1
2018-Feb-14 03:59N 34°30' E 137°03'5 9.4
2018-Feb-14 03:29N 34°26' E 137°04'2713.2
2018-Feb-14 01:25N 34°01' E 136°49'716.0
2018-Feb-14 01:00N 33°57' E 136°43'  

Dump ship's entire track history